This is the latest recevied weather packets stored in our database for station/object N8HON. If no packets are shown the sender has not sent any weather packets the latest 1 day(s).
| Time | Temp. | Humidity | Pressure | Rain* | Wind** | Luminosity | Snow |
|---|---|---|---|---|---|---|---|
| 1778104136 | 20° C | 73% | 1008 hPa | 0 mm | - | 160 W/m² | - |
| 1778103531 | 20° C | 73% | 1007.9 hPa | 0 mm | - | 133 W/m² | - |
| 1778102621 | 20° C | 74% | 1007.7 hPa | 0 mm | - | 163 W/m² | - |
| 1778101710 | 20° C | 75% | 1007.7 hPa | 0 mm | - | 199 W/m² | - |
| 1778101407 | 20° C | 76% | 1007.5 hPa | 0 mm | - | 162 W/m² | - |
| 1778100800 | 20° C | 76% | 1007.5 hPa | 0 mm | - | 148 W/m² | - |
| 1778099892 | 20° C | 79% | 1007.2 hPa | 0 mm | - | 212 W/m² | - |
| 1778099589 | 20° C | 80% | 1007.4 hPa | 0 mm | - | 138 W/m² | - |
| 1778098679 | 20° C | 79% | 1007.3 hPa | 0 mm | - | 95 W/m² | - |
| 1778098376 | 19.44° C | 80% | 1007.3 hPa | 0 mm | - | 187 W/m² | - |
| 1778097162 | 19.44° C | 79% | 1007.3 hPa | 0 mm | - | 46 W/m² | - |
| 1778096556 | 19.44° C | 79% | 1007.2 hPa | 0 mm | - | 148 W/m² | - |
| 1778096254 | 19.44° C | 79% | 1007.4 hPa | 0 mm | - | 112 W/m² | - |
| 1778094434 | 20.56° C | 76% | 1006.9 hPa | 0 mm | - | 250 W/m² | - |
| 1778093828 | 21.11° C | 76% | 1006.8 hPa | 0 mm | - | 324 W/m² | - |
| 1778093524 | 20.56° C | 77% | 1007 hPa | 0 mm | - | 392 W/m² | - |
| 1778093222 | 20.56° C | 77% | 1006.9 hPa | 0 mm | - | 256 W/m² | - |
| 1778092919 | 20.56° C | 76% | 1006.9 hPa | 0 mm | - | 340 W/m² | - |
| 1778092306 | 20.56° C | 76% | 1007.2 hPa | 0 mm | - | 354 W/m² | - |
| 1778090792 | 20° C | 76% | 1007.3 hPa | 0 mm | - | 190 W/m² | - |
| 1778090185 | 19.44° C | 78% | 1007.6 hPa | 0 mm | - | 165 W/m² | - |
| 1778087761 | 19.44° C | 77% | 1007.4 hPa | 0 mm | - | 378 W/m² | - |
| 1778085642 | 18.33° C | 79% | 1007.6 hPa | 0 mm | - | 193 W/m² | - |
| 1778081806 | 17.22° C | 84% | 1007.3 hPa | 0 mm | - | 187 W/m² | - |
| 1778081503 | 17.22° C | 83% | 1007.4 hPa | 0 mm | - | 176 W/m² | - |
* Rain latest hour (hover to see other rain measurements)
** Current wind speed in m/s (hover to see current wind gust speed)